Impacts METAR Board
IDs:

KPHX - Phoenix/Sky Harbor, AZ, US

Updated at: 2000 UTC 22 Apr 2018
Potential Impact None Slight Moderate High
Time 22/08Z 22/09Z 22/10Z 22/11Z 22/12Z 22/13Z 22/14Z 22/15Z 22/16Z 22/17Z 22/18Z 22/19Z 22/20Z
Temp72 72 70 67 67 65 66 72 77 83 85 89 91
Dewpt36 35 37 38 38 36 36 33 32 31 31 30 29
Altim29.90 29.90 29.88 29.88 29.87 29.89 29.90 29.91 29.91 29.91 29.90 29.88 29.85
VIS10 10 10 10 10 10 10 10 10 10 10 10 10
CIG250 250 250 250 250 -- -- -- -- -- -- -- --
CoverBKNBKNBKNBKNBKNSCTSCTSCTSCTSCTSCTSCTSCT
FltCatVFRVFRVFRVFRVFRVFRVFRVFRVFRVFRVFRVFRVFR
WX--------------------------
WDir901208010010010009080001600
WSpd6 5 5 4 4 4 0 3 3 0 3 7 0
WGst-- -- -- -- -- -- -- -- -- -- -- -- --
Raw hourly METARs
KPHX 220751Z 09006KT 10SM BKN250 22/02 A2990 RMK AO2 SLP110 T02220022
KPHX 220851Z 12005KT 10SM BKN250 22/02 A2990 RMK AO2 SLP108 T02220017 58009
KPHX 220951Z 08005KT 10SM BKN250 21/03 A2988 RMK AO2 SLP103 T02110028
KPHX 221051Z 10004KT 10SM BKN250 19/03 A2988 RMK AO2 SLP102 T01940033
KPHX 221151Z 10004KT 10SM BKN250 19/03 A2987 RMK AO2 SLP101 T01940033 10261 20189 56007
KPHX 221251Z 10004KT 10SM FEW200 SCT250 18/02 A2989 RMK AO2 SLP106 T01830022
KPHX 221351Z 00000KT 10SM FEW200 SCT250 19/02 A2990 RMK AO2 SLP110 T01890022
KPHX 221451Z 09003KT 10SM FEW180 SCT250 22/01 A2991 RMK AO2 SLP113 T02220006 51013
KPHX 221551Z 08003KT 10SM FEW180 SCT250 25/00 A2991 RMK AO2 SLP113 T02500000
KPHX 221651Z 00000KT 10SM SCT200 28/M01 A2991 RMK AO2 SLP113 T02831006
KPHX 221751Z VRB03KT 10SM FEW180 SCT200 29/M01 A2990 RMK AO2 SLP107 T02941006 10306 20172 58006
KPHX 221851Z 16007KT 10SM FEW140 FEW180 SCT200 32/M01 A2988 RMK AO2 SLP099 T03171011
KPHX 221951Z 00000KT 10SM FEW140 FEW180 SCT200 33/M02 A2985 RMK AO2 SLP090 T03281017



Page loaded:  20:23 UTC  |   01:23 PM Pacific  |   02:23 PM Mountain  |   03:23 PM Central  |   04:23 PM Eastern

 

ADVISORIES

FORECASTS

FORECASTS

OBSERVATIONS

USER TOOLS

ABOUT US